Malabo, Equatorial Guinea
Current Conditions -  °F | °C
As of 7:00 AM on Sunday 23 Nov 2014 (Local Time) from FGSL Reporting Station
Thunderstorm Thunderstorm  
Wind Chill: 25°   Ceiling: 6000
Heat Index: 26°   Visibility: 6mi
Dew Point: 24°   Wind: 0mph
Humidity: 94%   Direction: NA
Pressure: 29.83"   Gusts: NA
Location:  3.74°N, 8.79°E
Report Text: FGSL 230600Z 00000KT 9999 TS SCT008 FEW020CB BKN060 25/24 Q1010 TEMPO 4000 TSRA
Loading
Personal Weather Stations






























Interactive Weather Map New forecast layout! Learn more

10-Day Weather Forecast

Advertisements
Track Severe Weather on mobile